createdAt,value
2023-05-08T00:00:53.655Z,6.07
2023-05-08T00:01:53.654Z,10.91
2023-05-08T00:02:53.750Z,11.23
2023-05-08T00:03:53.966Z,14.45
2023-05-08T00:04:53.649Z,10.59
2023-05-08T00:05:53.591Z,11.87
2023-05-08T00:06:53.590Z,9.30
2023-05-08T00:07:53.584Z,10.91
2023-05-08T00:08:53.549Z,8.01
2023-05-08T00:09:53.530Z,8.01
2023-05-08T00:10:53.575Z,8.01
2023-05-08T00:11:53.542Z,14.45
2023-05-08T00:12:53.561Z,9.94
2023-05-08T00:13:53.505Z,14.45
2023-05-08T00:14:53.482Z,6.72
2023-05-08T00:15:53.487Z,7.69
2023-05-08T00:16:53.509Z,11.55
2023-05-08T00:17:53.466Z,9.62
2023-05-08T00:18:53.448Z,10.59
2023-05-08T00:19:53.438Z,9.94
2023-05-08T00:20:53.444Z,8.97
2023-05-08T00:21:53.414Z,10.91
2023-05-08T00:22:53.419Z,10.59
2023-05-08T00:23:53.394Z,11.87
2023-05-08T00:24:53.426Z,10.59
2023-05-08T00:25:53.409Z,10.26
2023-05-08T00:26:53.383Z,11.23
2023-05-08T00:27:53.366Z,10.91
2023-05-08T00:28:53.367Z,14.45
2023-05-08T00:29:53.363Z,8.97
2023-05-08T00:30:53.323Z,14.78
2023-05-08T00:31:53.378Z,10.26
2023-05-08T00:32:53.458Z,11.55
2023-05-08T00:33:53.291Z,10.91
2023-05-08T00:34:53.311Z,10.59
2023-05-08T00:35:53.300Z,10.59
2023-05-08T00:36:53.260Z,10.26
2023-05-08T00:37:53.248Z,10.59
2023-05-08T00:38:53.257Z,8.01
2023-05-08T00:39:53.232Z,11.23
2023-05-08T00:40:53.214Z,12.20
2023-05-08T00:41:53.216Z,13.81
2023-05-08T00:42:53.193Z,10.91
2023-05-08T00:43:53.205Z,9.94
2023-05-08T00:44:53.176Z,6.72
2023-05-08T00:45:53.187Z,10.26
2023-05-08T00:46:53.161Z,10.26
2023-05-08T00:47:53.210Z,12.84
2023-05-08T00:48:53.143Z,10.59
2023-05-08T00:49:53.119Z,10.91
2023-05-08T00:50:53.116Z,14.13
2023-05-08T00:51:53.096Z,12.52
2023-05-08T00:52:53.106Z,10.59
2023-05-08T00:53:53.084Z,9.94
2023-05-08T00:54:53.066Z,10.59
2023-05-08T00:55:53.053Z,7.04
2023-05-08T00:56:53.053Z,7.69
2023-05-08T00:57:53.044Z,9.62
2023-05-08T00:58:53.030Z,10.59
2023-05-08T00:59:53.012Z,7.36
2023-05-08T01:00:53.008Z,13.81
2023-05-08T01:01:53.095Z,10.26
2023-05-08T01:02:53.058Z,11.23
2023-05-08T01:03:53.081Z,10.59
2023-05-08T01:04:52.961Z,10.91
2023-05-08T01:05:52.960Z,7.04
2023-05-08T01:06:52.951Z,10.59
2023-05-08T01:07:52.950Z,11.55
2023-05-08T01:08:52.936Z,14.13
2023-05-08T01:09:52.900Z,12.52
2023-05-08T01:10:52.906Z,10.26
2023-05-08T01:11:52.903Z,9.94
2023-05-08T01:12:52.898Z,8.33
2023-05-08T01:13:52.863Z,10.59
2023-05-08T01:14:52.870Z,9.94
2023-05-08T01:15:53.047Z,10.91
2023-05-08T01:16:53.178Z,10.59
2023-05-08T01:17:52.922Z,5.11
2023-05-08T01:18:52.813Z,8.65
2023-05-08T01:19:52.805Z,7.69
2023-05-08T01:20:52.889Z,8.65
2023-05-08T01:21:53.526Z,11.23
2023-05-08T01:22:52.775Z,11.55
2023-05-08T01:23:52.771Z,13.16
2023-05-08T01:24:52.753Z,7.36
2023-05-08T01:25:52.758Z,12.52
2023-05-08T01:26:53.542Z,9.30
2023-05-08T01:27:52.721Z,9.30
2023-05-08T01:28:52.694Z,14.13
2023-05-08T01:29:52.745Z,11.23
2023-05-08T01:30:52.719Z,11.87
2023-05-08T01:31:52.673Z,10.91
2023-05-08T01:32:52.738Z,10.26
2023-05-08T01:33:52.704Z,13.16
2023-05-08T01:34:52.655Z,10.59
2023-05-08T01:35:52.677Z,8.33
2023-05-08T01:36:52.619Z,9.30
2023-05-08T01:37:52.624Z,9.62
2023-05-08T01:38:52.634Z,10.91
2023-05-08T01:39:52.619Z,10.26
2023-05-08T01:40:52.574Z,10.26
2023-05-08T01:41:52.574Z,10.26
2023-05-08T01:42:52.554Z,11.87
2023-05-08T01:43:52.561Z,11.55
2023-05-08T01:44:52.569Z,11.87
2023-05-08T01:45:52.533Z,9.94
2023-05-08T01:46:52.552Z,7.69
2023-05-08T01:47:52.572Z,8.01
2023-05-08T01:48:52.506Z,10.91
2023-05-08T01:49:52.490Z,13.81
2023-05-08T01:50:52.522Z,12.84
2023-05-08T01:51:52.463Z,9.94
2023-05-08T01:52:52.446Z,5.43
2023-05-08T01:53:52.483Z,9.62
2023-05-08T01:54:52.424Z,7.69
2023-05-08T01:55:52.420Z,13.81
2023-05-08T01:56:52.523Z,9.94
2023-05-08T01:57:52.424Z,10.59
2023-05-08T01:58:52.401Z,10.59
2023-05-08T01:59:52.387Z,10.26
2023-05-08T02:00:52.377Z,7.04
2023-05-08T02:01:52.377Z,10.59
2023-05-08T02:02:52.650Z,8.65
2023-05-08T02:03:52.402Z,9.94
2023-05-08T02:04:52.321Z,13.16
2023-05-08T02:05:52.383Z,8.01
2023-05-08T02:06:52.296Z,6.40
2023-05-08T02:07:52.317Z,9.30
2023-05-08T02:08:52.295Z,7.69
2023-05-08T02:09:52.273Z,10.59
2023-05-08T02:10:52.253Z,10.26
2023-05-08T02:11:52.284Z,9.94
2023-05-08T02:12:52.274Z,10.59
2023-05-08T02:13:52.234Z,10.59
2023-05-08T02:14:52.213Z,7.69
2023-05-08T02:15:52.214Z,11.23
2023-05-08T02:16:52.260Z,10.26
2023-05-08T02:17:52.291Z,9.30
2023-05-08T02:18:52.210Z,9.30
2023-05-08T02:19:52.167Z,8.65
2023-05-08T02:20:52.144Z,10.26
2023-05-08T02:21:52.180Z,8.97
2023-05-08T02:22:52.124Z,9.62
2023-05-08T02:23:52.137Z,10.59
2023-05-08T02:24:52.115Z,8.97
2023-05-08T02:25:52.125Z,9.62
2023-05-08T02:26:52.115Z,10.26
2023-05-08T02:27:52.083Z,12.84
2023-05-08T02:28:52.067Z,7.36
2023-05-08T02:29:52.064Z,7.04
2023-05-08T02:30:52.080Z,9.94
2023-05-08T02:31:52.075Z,9.62
2023-05-08T02:32:52.055Z,10.26
2023-05-08T02:33:52.028Z,9.62
2023-05-08T02:35:02.352Z,9.94
2023-05-08T02:35:52.031Z,9.62
2023-05-08T02:36:52.002Z,7.36
2023-05-08T02:37:51.971Z,12.52
2023-05-08T02:38:51.958Z,12.20
2023-05-08T02:39:52.006Z,7.04
2023-05-08T02:40:51.960Z,11.55
2023-05-08T02:41:51.936Z,10.26
2023-05-08T02:42:51.929Z,9.30
2023-05-08T02:43:51.919Z,6.40
2023-05-08T02:44:51.924Z,8.33
2023-05-08T02:45:51.911Z,12.52
2023-05-08T02:46:51.890Z,13.49
2023-05-08T02:47:51.890Z,9.94
2023-05-08T02:48:51.876Z,13.49
2023-05-08T02:49:51.873Z,9.30
2023-05-08T02:50:51.828Z,9.94
2023-05-08T02:51:51.832Z,7.36
2023-05-08T02:52:51.818Z,8.33
2023-05-08T02:53:51.835Z,9.94
2023-05-08T02:54:51.849Z,10.26
2023-05-08T02:55:51.787Z,9.94
2023-05-08T02:56:51.715Z,10.26
2023-05-08T02:57:51.769Z,13.49
2023-05-08T02:58:51.778Z,9.94
2023-05-08T02:59:51.737Z,9.94
2023-05-08T03:00:51.724Z,13.81
2023-05-08T03:01:51.826Z,7.69
2023-05-08T03:02:51.769Z,11.23
2023-05-08T03:03:51.827Z,9.94
2023-05-08T03:04:51.695Z,9.30
2023-05-08T03:05:51.616Z,13.49
2023-05-08T03:06:51.604Z,6.72
2023-05-08T03:07:51.700Z,11.87
2023-05-08T03:08:51.655Z,9.94
2023-05-08T03:09:51.630Z,13.81
2023-05-08T03:10:51.619Z,9.62
2023-05-08T03:11:51.608Z,10.91
2023-05-08T03:12:51.635Z,10.26
2023-05-08T03:13:51.604Z,7.04
2023-05-08T03:14:51.570Z,6.07
2023-05-08T03:15:51.553Z,10.26
2023-05-08T03:16:51.518Z,9.62
2023-05-08T03:17:51.530Z,9.62
2023-05-08T03:18:51.528Z,10.26
2023-05-08T03:19:51.477Z,8.33
2023-05-08T03:20:51.466Z,7.69
2023-05-08T03:21:51.467Z,12.84
2023-05-08T03:22:51.466Z,9.62
2023-05-08T03:23:51.426Z,10.59
2023-05-08T03:24:51.437Z,9.94
2023-05-08T03:25:51.416Z,6.72
2023-05-08T03:26:51.407Z,9.94
2023-05-08T03:27:51.386Z,10.59
2023-05-08T03:28:51.397Z,9.62
2023-05-08T03:29:51.356Z,8.01
2023-05-08T03:30:51.356Z,9.94
2023-05-08T03:31:51.423Z,13.16
2023-05-08T03:32:51.389Z,10.91
2023-05-08T03:33:51.317Z,9.94
2023-05-08T03:34:51.321Z,9.94
2023-05-08T03:35:51.333Z,9.62
2023-05-08T03:36:51.289Z,10.26
2023-05-08T03:37:51.304Z,8.33
2023-05-08T03:38:51.260Z,10.91
2023-05-08T03:39:51.263Z,8.97
2023-05-08T03:40:51.273Z,6.72
2023-05-08T03:41:51.241Z,8.33
2023-05-08T03:42:51.224Z,10.59
2023-05-08T03:43:51.222Z,6.40
2023-05-08T03:44:51.200Z,8.33
2023-05-08T03:45:51.234Z,9.62
2023-05-08T03:46:51.281Z,10.91
2023-05-08T03:47:51.237Z,6.07
2023-05-08T03:48:51.155Z,8.65
2023-05-08T03:49:51.166Z,10.59
2023-05-08T03:50:51.140Z,9.30
2023-05-08T03:51:51.125Z,5.75
2023-05-08T03:52:51.122Z,9.94
2023-05-08T03:53:51.119Z,8.65
2023-05-08T03:54:51.105Z,9.30
2023-05-08T03:55:51.088Z,13.49
2023-05-08T03:56:51.157Z,4.14
2023-05-08T03:57:51.069Z,6.72
2023-05-08T03:58:51.061Z,10.59
2023-05-08T03:59:51.078Z,8.33
2023-05-08T04:00:51.032Z,9.94
2023-05-08T04:01:51.044Z,5.75
2023-05-08T04:02:51.135Z,10.59
2023-05-08T04:03:51.157Z,10.26
2023-05-08T04:04:51.086Z,9.30
2023-05-08T04:05:51.003Z,14.13
2023-05-08T04:06:51.359Z,13.16
2023-05-08T04:07:50.962Z,5.11
2023-05-08T04:08:50.987Z,10.26
2023-05-08T04:09:50.950Z,10.59
2023-05-08T04:10:50.934Z,10.26
2023-05-08T04:11:50.934Z,12.20
2023-05-08T04:12:50.982Z,14.78
2023-05-08T04:13:50.919Z,10.26
2023-05-08T04:14:50.900Z,9.62
2023-05-08T04:15:50.892Z,14.13
2023-05-08T04:16:50.897Z,6.07
2023-05-08T04:17:51.099Z,8.65
2023-05-08T04:18:50.872Z,10.26
2023-05-08T04:19:50.847Z,6.72
2023-05-08T04:20:50.835Z,11.23
2023-05-08T04:21:50.829Z,9.62
2023-05-08T04:22:50.831Z,9.94
2023-05-08T04:23:50.812Z,12.52
2023-05-08T04:24:50.794Z,12.52
2023-05-08T04:25:50.785Z,9.94
2023-05-08T04:26:50.809Z,14.13
2023-05-08T04:27:50.859Z,9.62
2023-05-08T04:28:50.844Z,9.62
2023-05-08T04:29:50.740Z,9.62
2023-05-08T04:30:50.781Z,10.26
2023-05-08T04:31:50.826Z,13.16
2023-05-08T04:32:50.793Z,9.62
2023-05-08T04:33:50.749Z,13.81
2023-05-08T04:34:51.465Z,9.62
2023-05-08T04:35:50.673Z,12.20
2023-05-08T04:36:50.678Z,6.72
2023-05-08T04:37:50.660Z,9.94
2023-05-08T04:38:50.640Z,9.62
2023-05-08T04:39:50.624Z,13.49
2023-05-08T04:40:50.619Z,7.04
2023-05-08T04:41:50.701Z,5.43
2023-05-08T04:42:50.600Z,9.62
2023-05-08T04:43:50.612Z,8.97
2023-05-08T04:44:50.584Z,8.97
2023-05-08T04:45:50.611Z,13.49
2023-05-08T04:46:50.564Z,7.36
2023-05-08T04:47:50.673Z,7.36
2023-05-08T04:48:50.561Z,9.94
2023-05-08T04:49:50.533Z,5.11
2023-05-08T04:50:50.532Z,12.52
2023-05-08T04:51:50.501Z,6.07
2023-05-08T04:52:50.499Z,9.94
2023-05-08T04:53:50.483Z,10.26
2023-05-08T04:54:50.475Z,9.30
2023-05-08T04:55:50.493Z,8.33
2023-05-08T04:56:50.483Z,8.97
2023-05-08T04:57:50.453Z,10.59
2023-05-08T04:58:50.446Z,10.59
2023-05-08T04:59:50.533Z,11.23
2023-05-08T05:00:50.518Z,13.49
2023-05-08T05:01:50.474Z,9.62
2023-05-08T05:02:50.415Z,9.62
2023-05-08T05:03:50.427Z,12.84
2023-05-08T05:04:50.566Z,6.40
2023-05-08T05:05:51.079Z,9.94
2023-05-08T05:06:51.071Z,10.91
2023-05-08T05:07:50.361Z,6.72
2023-05-08T05:08:50.371Z,12.52
2023-05-08T05:09:50.344Z,14.13
2023-05-08T05:10:51.065Z,12.84
2023-05-08T05:11:50.305Z,9.94
2023-05-08T05:12:50.625Z,9.62
2023-05-08T05:13:50.292Z,7.69
2023-05-08T05:14:50.257Z,11.23
2023-05-08T05:15:50.299Z,14.45
2023-05-08T05:16:50.969Z,7.36
2023-05-08T05:17:50.268Z,13.49
2023-05-08T05:18:50.542Z,10.59
2023-05-08T05:19:51.612Z,10.26
2023-05-08T05:20:50.185Z,9.30
2023-05-08T05:21:50.241Z,8.33
2023-05-08T05:22:50.159Z,9.30
2023-05-08T05:23:50.217Z,9.94
2023-05-08T05:24:50.150Z,11.23
2023-05-08T05:25:50.151Z,6.40
2023-05-08T05:26:50.153Z,10.59
2023-05-08T05:27:50.126Z,8.01
2023-05-08T05:28:50.120Z,10.26
2023-05-08T05:29:50.103Z,10.59
2023-05-08T05:30:50.096Z,8.65
2023-05-08T05:31:50.113Z,13.16
2023-05-08T05:32:50.160Z,10.26
2023-05-08T05:33:50.054Z,12.52
2023-05-08T05:34:50.032Z,17.03
2023-05-08T05:35:50.093Z,11.23
2023-05-08T05:36:50.007Z,10.91
2023-05-08T05:37:50.046Z,10.26
2023-05-08T05:38:50.015Z,10.59
2023-05-08T05:39:50.003Z,10.26
2023-05-08T05:40:49.983Z,14.45
2023-05-08T05:41:50.012Z,10.91
2023-05-08T05:42:49.999Z,10.26
2023-05-08T05:43:49.970Z,12.52
2023-05-08T05:44:49.943Z,10.91
2023-05-08T05:45:49.931Z,10.91
2023-05-08T05:46:50.482Z,11.23
2023-05-08T05:47:50.435Z,13.81
2023-05-08T05:48:49.905Z,13.49
2023-05-08T05:49:49.882Z,7.69
2023-05-08T05:50:49.896Z,9.30
2023-05-08T05:51:49.870Z,9.62
2023-05-08T05:52:49.853Z,14.13
2023-05-08T05:53:49.844Z,12.84
2023-05-08T05:54:49.822Z,14.45
2023-05-08T05:55:49.870Z,11.87
2023-05-08T05:56:49.854Z,8.65
2023-05-08T05:57:49.787Z,9.30
2023-05-08T05:58:50.506Z,9.30
2023-05-08T05:59:49.799Z,12.84
2023-05-08T06:00:49.801Z,14.45
2023-05-08T06:01:49.842Z,10.91
2023-05-08T06:02:49.902Z,11.87
2023-05-08T06:03:49.814Z,11.23
2023-05-08T06:04:49.738Z,13.49
2023-05-08T06:05:49.739Z,8.97
2023-05-08T06:06:49.706Z,11.55
2023-05-08T06:07:49.689Z,11.23
2023-05-08T06:08:49.681Z,10.91
2023-05-08T06:09:49.694Z,11.23
2023-05-08T06:10:49.687Z,11.55
2023-05-08T06:11:49.663Z,14.13
2023-05-08T06:12:56.572Z,7.36
2023-05-08T06:13:50.679Z,11.55
2023-05-08T06:14:49.642Z,10.91
2023-05-08T06:15:49.591Z,11.23
2023-05-08T06:16:49.629Z,14.78
2023-05-08T06:17:49.640Z,14.13
2023-05-08T06:18:49.601Z,13.49
2023-05-08T06:19:49.580Z,8.97
2023-05-08T06:20:49.574Z,10.59
2023-05-08T06:21:49.548Z,10.59
2023-05-08T06:22:49.534Z,14.13
2023-05-08T06:23:49.546Z,11.23
2023-05-08T06:24:49.615Z,10.26
2023-05-08T06:25:49.527Z,14.45
2023-05-08T06:26:49.513Z,11.23
2023-05-08T06:27:49.462Z,10.91
2023-05-08T06:28:49.487Z,12.52
2023-05-08T06:29:49.462Z,9.94
2023-05-08T06:30:49.574Z,11.87
2023-05-08T06:31:49.449Z,13.16
2023-05-08T06:32:49.537Z,12.20
2023-05-08T06:33:49.475Z,10.91
2023-05-08T06:34:49.397Z,14.13
2023-05-08T06:35:49.507Z,10.91
2023-05-08T06:36:49.422Z,15.10
2023-05-08T06:37:49.377Z,11.23
2023-05-08T06:38:49.352Z,11.55
2023-05-08T06:39:57.249Z,8.97
2023-05-08T06:40:49.350Z,11.23
2023-05-08T06:41:49.322Z,8.01
2023-05-08T06:42:49.347Z,12.52
2023-05-08T06:43:49.312Z,11.87
2023-05-08T06:44:49.293Z,11.23
2023-05-08T06:45:49.317Z,11.23
2023-05-08T06:46:49.349Z,11.87
2023-05-08T06:47:49.421Z,13.16
2023-05-08T06:48:49.279Z,15.42
2023-05-08T06:49:49.262Z,11.87
2023-05-08T06:50:49.229Z,11.55
2023-05-08T06:51:49.245Z,15.42
2023-05-08T06:52:49.226Z,13.49
2023-05-08T06:53:49.191Z,9.62
2023-05-08T06:54:49.213Z,11.23
2023-05-08T06:55:49.185Z,11.23
2023-05-08T06:56:49.186Z,11.23
2023-05-08T06:57:49.140Z,11.55
2023-05-08T06:58:57.169Z,10.59
2023-05-08T06:59:49.180Z,11.87
2023-05-08T07:00:49.149Z,11.87
2023-05-08T07:01:49.349Z,11.87
2023-05-08T07:02:49.324Z,11.55
2023-05-08T07:03:49.082Z,10.91
2023-05-08T07:04:49.241Z,9.62
2023-05-08T07:05:49.077Z,10.26
2023-05-08T07:06:49.084Z,11.55
2023-05-08T07:07:49.050Z,11.87
2023-05-08T07:08:49.056Z,11.87
2023-05-08T07:09:49.016Z,11.87
2023-05-08T07:10:49.028Z,11.87
2023-05-08T07:11:49.001Z,14.13
2023-05-08T07:12:49.039Z,11.55
2023-05-08T07:13:49.001Z,11.23
2023-05-08T07:14:49.000Z,13.49
2023-05-08T07:15:49.107Z,12.20
2023-05-08T07:16:48.965Z,12.84
2023-05-08T07:17:49.050Z,13.16
2023-05-08T07:18:48.928Z,15.42
2023-05-08T07:19:48.933Z,8.65
2023-05-08T07:20:48.905Z,9.62
2023-05-08T07:21:48.909Z,12.20
2023-05-08T07:22:48.944Z,13.81
2023-05-08T07:23:48.925Z,12.20
2023-05-08T07:24:48.884Z,15.10
2023-05-08T07:25:48.846Z,9.30
2023-05-08T07:26:48.846Z,11.87
2023-05-08T07:27:48.831Z,14.78
2023-05-08T07:28:48.841Z,9.30
2023-05-08T07:29:48.849Z,10.91
2023-05-08T07:30:48.798Z,12.20
2023-05-08T07:31:48.840Z,12.52
2023-05-08T07:32:48.809Z,13.81
2023-05-08T07:33:48.786Z,15.10
2023-05-08T07:34:48.803Z,15.10
2023-05-08T07:35:48.757Z,12.84
2023-05-08T07:36:48.755Z,15.74
2023-05-08T07:37:48.747Z,12.84
2023-05-08T07:38:48.778Z,13.16
2023-05-08T07:39:48.698Z,15.74
2023-05-08T07:40:49.515Z,13.16
2023-05-08T07:41:50.083Z,13.16
2023-05-08T07:42:49.380Z,14.13
2023-05-08T07:43:49.141Z,12.84
2023-05-08T07:44:54.810Z,12.84
2023-05-08T07:45:48.626Z,12.84
2023-05-08T07:46:48.726Z,12.84
2023-05-08T07:47:48.652Z,10.91
2023-05-08T07:48:49.511Z,11.87
2023-05-08T07:49:48.588Z,13.16
2023-05-08T07:50:48.575Z,18.96
2023-05-08T07:51:48.567Z,13.81
2023-05-08T07:52:50.128Z,15.10
2023-05-08T07:53:48.556Z,13.49
2023-05-08T07:54:48.550Z,13.81
2023-05-08T07:55:48.519Z,12.52
2023-05-08T07:56:48.665Z,13.49
2023-05-08T07:57:48.530Z,11.55
2023-05-08T07:58:48.499Z,11.55
2023-05-08T07:59:48.490Z,11.87
2023-05-08T08:00:48.468Z,11.23
2023-05-08T08:01:48.557Z,13.16
2023-05-08T08:02:48.651Z,15.42
2023-05-08T08:03:48.574Z,12.20
2023-05-08T08:04:48.442Z,12.52
2023-05-08T08:05:48.419Z,11.23
2023-05-08T08:06:48.431Z,13.49
2023-05-08T08:07:48.396Z,12.52
2023-05-08T08:08:48.389Z,13.49
2023-05-08T08:09:48.368Z,11.55
2023-05-08T08:10:48.378Z,13.81
2023-05-08T08:11:48.367Z,14.78
2023-05-08T08:12:48.383Z,12.52
2023-05-08T08:13:48.340Z,13.16
2023-05-08T08:14:48.330Z,11.55
2023-05-08T08:15:48.318Z,13.49
2023-05-08T08:16:48.360Z,12.84
2023-05-08T08:17:48.335Z,12.84
2023-05-08T08:18:48.278Z,13.81
2023-05-08T08:19:48.306Z,13.81
2023-05-08T08:20:48.271Z,12.52
2023-05-08T08:21:48.271Z,13.49
2023-05-08T08:22:48.254Z,14.13
2023-05-08T08:23:48.220Z,15.74
2023-05-08T08:24:48.240Z,13.49
2023-05-08T08:25:48.391Z,12.52
2023-05-08T08:26:48.197Z,15.74
2023-05-08T08:27:48.186Z,15.10
2023-05-08T08:28:48.180Z,13.81
2023-05-08T08:29:48.191Z,13.49
2023-05-08T08:30:48.202Z,13.49
2023-05-08T08:31:48.147Z,13.16
2023-05-08T08:32:48.157Z,14.13
2023-05-08T08:33:48.169Z,12.52
2023-05-08T08:34:48.150Z,12.20
2023-05-08T08:35:48.126Z,8.97
2023-05-08T08:36:48.082Z,13.81
2023-05-08T08:37:48.072Z,13.81
2023-05-08T08:38:48.100Z,11.55
2023-05-08T08:39:48.049Z,15.74
2023-05-08T08:40:48.042Z,14.45
2023-05-08T08:41:48.034Z,14.13
2023-05-08T08:42:48.023Z,14.78
2023-05-08T08:43:48.052Z,13.81
2023-05-08T08:44:48.009Z,14.45
2023-05-08T08:45:48.022Z,13.81
2023-05-08T08:46:48.060Z,12.52
2023-05-08T08:47:48.118Z,13.81
2023-05-08T08:48:47.975Z,10.26
2023-05-08T08:49:47.943Z,11.87
2023-05-08T08:50:47.963Z,13.81
2023-05-08T08:51:47.929Z,9.94
2023-05-08T08:52:47.983Z,14.45
2023-05-08T08:53:47.932Z,14.45
2023-05-08T08:54:47.915Z,13.16
2023-05-08T08:55:48.164Z,13.81
2023-05-08T08:56:47.945Z,12.84
2023-05-08T08:57:47.886Z,13.81
2023-05-08T08:58:47.887Z,13.16
2023-05-08T08:59:47.859Z,13.16
2023-05-08T09:00:47.895Z,16.71
2023-05-08T09:01:47.922Z,13.81
2023-05-08T09:02:47.935Z,13.49
2023-05-08T09:03:49.772Z,13.49
2023-05-08T09:04:47.798Z,13.49
2023-05-08T09:05:47.780Z,11.87
2023-05-08T09:06:47.791Z,12.84
2023-05-08T09:07:47.747Z,14.45
2023-05-08T09:08:47.758Z,11.23
2023-05-08T09:09:47.734Z,12.84
2023-05-08T09:10:47.745Z,13.16
2023-05-08T09:11:47.738Z,13.49
2023-05-08T09:12:47.729Z,13.16
2023-05-08T09:13:47.685Z,13.16
2023-05-08T09:14:47.868Z,13.49
2023-05-08T09:15:47.703Z,10.26
2023-05-08T09:16:47.818Z,14.13
2023-05-08T09:17:47.733Z,12.52
2023-05-08T09:18:47.637Z,13.81
2023-05-08T09:19:47.627Z,13.81
2023-05-08T09:20:47.661Z,10.26
2023-05-08T09:21:47.602Z,12.20
2023-05-08T09:22:47.588Z,13.49
2023-05-08T09:23:47.598Z,14.13
2023-05-08T09:24:47.600Z,13.16
2023-05-08T09:25:47.574Z,15.42
2023-05-08T09:26:47.578Z,15.10
2023-05-08T09:27:47.632Z,14.45
2023-05-08T09:28:47.591Z,14.45
2023-05-08T09:29:47.528Z,12.52
2023-05-08T09:30:47.533Z,13.81
2023-05-08T09:31:47.731Z,14.78
2023-05-08T09:32:47.525Z,14.78
2023-05-08T09:33:47.462Z,13.16
2023-05-08T09:34:47.783Z,16.06
2023-05-08T09:35:47.453Z,13.81
2023-05-08T09:36:47.457Z,17.68
2023-05-08T09:37:47.558Z,17.35
2023-05-08T09:38:47.425Z,14.45
2023-05-08T09:39:47.456Z,12.52
2023-05-08T09:40:47.426Z,12.52
2023-05-08T09:41:47.384Z,13.81
2023-05-08T09:42:47.379Z,14.78
2023-05-08T09:43:47.377Z,15.10
2023-05-08T09:44:47.373Z,14.78
2023-05-08T09:45:47.374Z,15.42
2023-05-08T09:46:47.390Z,14.78
2023-05-08T09:47:47.342Z,11.55
2023-05-08T09:48:47.356Z,16.39
2023-05-08T09:49:47.302Z,12.52
2023-05-08T09:50:47.324Z,15.10
2023-05-08T09:51:47.315Z,15.10
2023-05-08T09:52:47.284Z,17.68
2023-05-08T09:53:47.289Z,15.42
2023-05-08T09:54:47.374Z,16.39
2023-05-08T09:55:47.273Z,19.29
2023-05-08T09:56:47.242Z,15.74
2023-05-08T09:57:47.279Z,14.13
2023-05-08T09:58:47.272Z,13.16
2023-05-08T09:59:47.212Z,16.06
2023-05-08T10:00:47.228Z,16.06
2023-05-08T10:01:47.194Z,17.35
2023-05-08T10:02:47.212Z,16.39
2023-05-08T10:03:47.244Z,13.16
2023-05-08T10:04:47.224Z,14.45
2023-05-08T10:05:47.143Z,16.39
2023-05-08T10:06:47.135Z,16.06
2023-05-08T10:07:47.137Z,18.32
2023-05-08T10:08:47.188Z,17.68
2023-05-08T10:09:50.706Z,17.35
2023-05-08T10:10:47.467Z,14.45
2023-05-08T10:11:47.113Z,13.16
2023-05-08T10:12:47.077Z,17.68
2023-05-08T10:13:47.067Z,15.74
2023-05-08T10:14:47.161Z,15.42
2023-05-08T10:15:47.042Z,17.03
2023-05-08T10:16:47.165Z,19.61
2023-05-08T10:17:47.073Z,16.39
2023-05-08T10:18:47.046Z,17.03
2023-05-08T10:19:47.006Z,14.78
2023-05-08T10:20:46.992Z,16.71
2023-05-08T10:21:47.002Z,16.39
2023-05-08T10:22:46.971Z,14.78
2023-05-08T10:23:46.981Z,17.35
2023-05-08T10:24:46.954Z,18.00
2023-05-08T10:25:46.987Z,17.35
2023-05-08T10:27:02.734Z,17.35
2023-05-08T10:27:46.914Z,17.03
2023-05-08T10:28:46.896Z,16.71
2023-05-08T10:29:46.917Z,17.03
2023-05-08T10:30:46.937Z,20.25
2023-05-08T10:31:46.890Z,15.10
2023-05-08T10:32:46.929Z,15.42
2023-05-08T10:33:47.090Z,18.64
2023-05-08T10:34:46.846Z,16.71
2023-05-08T10:35:46.856Z,17.35
2023-05-08T10:36:46.848Z,19.61
2023-05-08T10:37:46.818Z,19.61
2023-05-08T10:38:46.798Z,14.78
2023-05-08T10:39:46.855Z,16.71
2023-05-08T10:40:46.834Z,17.03
2023-05-08T10:41:46.784Z,16.71
2023-05-08T10:42:46.762Z,16.71
2023-05-08T10:43:46.768Z,17.03
2023-05-08T10:44:46.983Z,15.10
2023-05-08T10:45:46.749Z,16.71
2023-05-08T10:46:46.749Z,15.42
2023-05-08T10:47:48.619Z,17.03
2023-05-08T10:48:46.722Z,18.32
2023-05-08T10:49:46.704Z,17.03
2023-05-08T10:50:46.769Z,13.49
2023-05-08T10:51:46.686Z,18.96
2023-05-08T10:52:47.598Z,16.39
2023-05-08T10:53:46.739Z,17.35
2023-05-08T10:54:46.698Z,16.06
2023-05-08T10:55:46.713Z,17.35
2023-05-08T10:56:46.617Z,17.35
2023-05-08T10:57:46.620Z,19.29
2023-05-08T10:58:46.647Z,19.61
2023-05-08T10:59:46.704Z,16.71
2023-05-08T11:00:46.625Z,15.10
2023-05-08T11:01:46.596Z,14.13
2023-05-08T11:02:46.703Z,17.03
2023-05-08T11:03:46.662Z,19.61
2023-05-08T11:04:46.651Z,17.03
2023-05-08T11:05:46.540Z,18.96
2023-05-08T11:06:46.553Z,15.10
2023-05-08T11:07:47.104Z,17.03
2023-05-08T11:08:46.483Z,16.71
2023-05-08T11:09:46.466Z,17.35
2023-05-08T11:10:46.489Z,17.35
2023-05-08T11:11:46.446Z,17.35
2023-05-08T11:12:46.514Z,19.93
2023-05-08T11:13:46.451Z,18.00
2023-05-08T11:14:46.425Z,17.68
2023-05-08T11:15:46.442Z,20.25
2023-05-08T11:16:46.467Z,18.00
2023-05-08T11:17:46.582Z,18.64
2023-05-08T11:18:49.760Z,20.90
2023-05-08T11:19:46.375Z,20.58
2023-05-08T11:20:46.388Z,18.64
2023-05-08T11:21:46.400Z,17.03
2023-05-08T11:22:46.325Z,18.64
2023-05-08T11:23:46.326Z,18.64
2023-05-08T11:24:46.339Z,19.29
2023-05-08T11:25:46.310Z,19.29
2023-05-08T11:26:46.368Z,19.29
2023-05-08T11:27:46.285Z,18.96
2023-05-08T11:28:46.270Z,18.64
2023-05-08T11:29:46.254Z,23.15
2023-05-08T11:30:46.262Z,19.61
2023-05-08T11:31:47.345Z,19.61
2023-05-08T11:32:46.259Z,21.22
2023-05-08T11:33:46.231Z,19.61
2023-05-08T11:34:46.219Z,17.03
2023-05-08T11:35:46.246Z,22.51
2023-05-08T11:36:46.189Z,22.83
2023-05-08T11:37:46.173Z,18.96
2023-05-08T11:38:46.204Z,18.32
2023-05-08T11:39:46.148Z,20.25
2023-05-08T11:40:46.298Z,18.96
2023-05-08T11:41:46.132Z,19.29
2023-05-08T11:42:47.100Z,19.61
2023-05-08T11:43:46.115Z,17.68
2023-05-08T11:44:46.222Z,19.29
2023-05-08T11:45:46.102Z,19.93
2023-05-08T11:46:46.116Z,19.93
2023-05-08T11:47:46.170Z,21.22
2023-05-08T11:48:46.046Z,19.93
2023-05-08T11:49:46.061Z,19.61
2023-05-08T11:50:46.089Z,19.61
2023-05-08T11:51:46.030Z,19.29
2023-05-08T11:52:46.008Z,17.68
2023-05-08T11:53:46.081Z,20.25
2023-05-08T11:54:46.079Z,19.29
2023-05-08T11:55:45.988Z,17.35
2023-05-08T11:56:47.734Z,19.29
2023-05-08T11:57:45.978Z,19.29
2023-05-08T11:58:45.964Z,19.29
2023-05-08T11:59:45.991Z,18.00
2023-05-08T12:00:45.970Z,19.29
2023-05-08T12:01:53.638Z,19.61
2023-05-08T12:02:46.047Z,18.96
2023-05-08T12:03:46.021Z,19.93
2023-05-08T12:04:45.940Z,19.61
2023-05-08T12:05:45.918Z,17.03
2023-05-08T12:06:45.878Z,18.64
2023-05-08T12:07:45.879Z,19.61
2023-05-08T12:08:45.873Z,19.29
2023-05-08T12:09:45.852Z,19.93
2023-05-08T12:10:46.805Z,19.93
2023-05-08T12:11:45.845Z,19.93
2023-05-08T12:12:46.166Z,19.61
2023-05-08T12:13:45.888Z,20.25
2023-05-08T12:14:45.812Z,18.96
2023-05-08T12:15:45.783Z,17.68
2023-05-08T12:16:45.830Z,17.68
2023-05-08T12:17:45.848Z,19.61
2023-05-08T12:18:45.786Z,19.29
2023-05-08T12:19:45.741Z,17.03
2023-05-08T12:20:45.733Z,19.61
2023-05-08T12:21:45.711Z,19.29
2023-05-08T12:22:45.709Z,16.39
2023-05-08T12:23:45.738Z,16.39
2023-05-08T12:24:45.683Z,17.35
2023-05-08T12:25:45.701Z,19.29
2023-05-08T12:26:45.692Z,19.61
2023-05-08T12:27:45.813Z,18.96
2023-05-08T12:28:45.691Z,22.51
2023-05-08T12:29:45.691Z,19.61
2023-05-08T12:30:45.644Z,18.96
2023-05-08T12:31:45.747Z,19.29
2023-05-08T12:32:45.656Z,21.22
2023-05-08T12:33:45.698Z,16.39
2023-05-08T12:34:45.580Z,17.68
2023-05-08T12:35:45.624Z,17.68
2023-05-08T12:36:45.615Z,18.64
2023-05-08T12:37:45.617Z,16.39
2023-05-08T12:38:45.526Z,18.00
2023-05-08T12:39:45.700Z,16.39
2023-05-08T12:40:46.129Z,18.64
2023-05-08T12:41:45.588Z,18.64
2023-05-08T12:42:45.601Z,18.96
2023-05-08T12:43:45.484Z,19.29
2023-05-08T12:44:45.479Z,19.93
2023-05-08T12:45:45.526Z,18.64
2023-05-08T12:46:45.500Z,17.35
2023-05-08T12:47:45.479Z,16.06
2023-05-08T12:48:45.434Z,18.64
2023-05-08T12:49:45.444Z,20.90
2023-05-08T12:50:45.424Z,18.96
2023-05-08T12:51:45.403Z,20.58
2023-05-08T12:52:45.414Z,17.68
2023-05-08T12:53:45.372Z,18.64
2023-05-08T12:54:45.376Z,20.58
2023-05-08T12:55:45.409Z,18.64
2023-05-08T12:56:45.384Z,18.96
2023-05-08T12:57:45.336Z,18.96
2023-05-08T12:58:45.380Z,18.64